createdAt,value
2018-02-20T00:01:32.136Z,2.20
2018-02-20T00:03:59.685Z,2.67
2018-02-20T00:06:27.235Z,2.90
2018-02-20T00:08:54.979Z,3.30
2018-02-20T00:11:22.525Z,2.93
2018-02-20T00:13:50.079Z,3.10
2018-02-20T00:16:17.619Z,2.97
2018-02-20T00:18:45.149Z,2.90
2018-02-20T00:21:12.746Z,3.03
2018-02-20T00:23:40.274Z,3.27
2018-02-20T00:26:07.806Z,3.70
2018-02-20T00:28:35.534Z,3.77
2018-02-20T00:31:03.078Z,3.87
2018-02-20T00:33:30.682Z,3.60
2018-02-20T00:35:58.352Z,4.20
2018-02-20T00:38:25.891Z,3.90
2018-02-20T00:40:53.431Z,3.63
2018-02-20T00:43:21.014Z,3.93
2018-02-20T00:45:48.564Z,4.30
2018-02-20T00:48:16.102Z,4.10
2018-02-20T00:50:43.693Z,4.33
2018-02-20T00:53:11.242Z,4.00
2018-02-20T00:55:38.789Z,4.53
2018-02-20T00:58:06.519Z,4.10
2018-02-20T01:00:34.080Z,3.97
2018-02-20T01:03:01.946Z,4.00
2018-02-20T01:05:29.691Z,4.43
2018-02-20T01:07:57.237Z,4.70
2018-02-20T01:10:24.782Z,4.70
2018-02-20T01:12:52.459Z,4.30
2018-02-20T01:15:20.034Z,3.83
2018-02-20T01:17:47.570Z,4.23
2018-02-20T01:20:15.139Z,3.73
2018-02-20T01:22:42.694Z,4.00
2018-02-20T01:25:10.228Z,4.20
2018-02-20T01:27:37.818Z,3.93
2018-02-20T01:30:05.356Z,4.27
2018-02-20T01:32:32.890Z,3.87
2018-02-20T01:35:00.578Z,3.90
2018-02-20T01:37:28.125Z,3.40
2018-02-20T01:39:55.694Z,3.70
2018-02-20T01:42:23.255Z,4.27
2018-02-20T01:44:50.795Z,4.07
2018-02-20T01:47:18.353Z,3.87
2018-02-20T01:49:45.938Z,4.10
2018-02-20T01:52:13.477Z,4.17
2018-02-20T01:54:41.043Z,3.90
2018-02-20T01:57:08.627Z,3.77
2018-02-20T01:59:36.161Z,3.87
2018-02-20T02:02:03.740Z,4.17
2018-02-20T02:04:31.603Z,4.40
2018-02-20T02:06:59.142Z,4.37
2018-02-20T02:09:26.700Z,5.40
2018-02-20T02:11:54.387Z,5.13
2018-02-20T02:14:21.919Z,4.97
2018-02-20T02:16:49.462Z,4.80
2018-02-20T02:19:17.134Z,4.67
2018-02-20T02:21:44.675Z,4.27
2018-02-20T02:24:12.222Z,5.20
2018-02-20T02:26:39.789Z,4.77
2018-02-20T02:29:07.334Z,5.10
2018-02-20T02:31:34.872Z,6.60
2018-02-20T02:34:02.458Z,7.77
2018-02-20T02:36:30.007Z,7.23
2018-02-20T02:38:57.555Z,7.20
2018-02-20T02:41:25.155Z,10.77
2018-02-20T02:43:52.703Z,12.67
2018-02-20T02:46:20.243Z,7.37
2018-02-20T02:48:47.827Z,8.13
2018-02-20T02:51:15.361Z,6.93
2018-02-20T02:53:42.913Z,5.67
2018-02-20T02:56:10.501Z,5.57
2018-02-20T02:58:38.040Z,6.40
2018-02-20T03:01:05.587Z,5.80
2018-02-20T03:03:33.202Z,6.17
2018-02-20T03:06:00.756Z,5.77
2018-02-20T03:08:28.313Z,5.87
2018-02-20T03:10:55.971Z,5.07
2018-02-20T03:13:23.499Z,6.13
2018-02-20T03:15:51.053Z,6.30
2018-02-20T03:18:18.719Z,5.20
2018-02-20T03:20:46.267Z,5.40
2018-02-20T03:23:13.805Z,5.43
2018-02-20T03:25:41.377Z,5.73
2018-02-20T03:28:08.917Z,5.80
2018-02-20T03:30:36.451Z,5.57
2018-02-20T03:33:04.338Z,6.37
2018-02-20T03:35:31.878Z,5.70
2018-02-20T03:37:59.420Z,5.23
2018-02-20T03:40:27.001Z,5.63
2018-02-20T03:42:54.574Z,5.43
2018-02-20T03:45:22.122Z,5.60
2018-02-20T03:47:49.702Z,5.80
2018-02-20T03:50:17.253Z,5.67
2018-02-20T03:52:44.788Z,4.93
2018-02-20T03:55:12.351Z,5.00
2018-02-20T03:57:39.890Z,4.73
2018-02-20T04:00:07.677Z,4.80
2018-02-20T04:02:35.248Z,5.60
2018-02-20T04:05:02.783Z,6.20
2018-02-20T04:07:30.325Z,5.57
2018-02-20T04:09:57.910Z,5.93
2018-02-20T04:12:25.455Z,5.60
2018-02-20T04:14:53.017Z,5.23
2018-02-20T04:17:20.688Z,6.13
2018-02-20T04:19:48.235Z,5.60
2018-02-20T04:22:15.957Z,5.77
2018-02-20T04:24:43.491Z,5.67
2018-02-20T04:27:11.040Z,5.80
2018-02-20T04:29:38.597Z,5.80
2018-02-20T04:32:06.138Z,5.60
2018-02-20T04:34:33.674Z,5.67
2018-02-20T04:37:01.254Z,4.63
2018-02-20T04:39:28.794Z,4.00
2018-02-20T04:41:56.335Z,5.73
2018-02-20T04:44:23.987Z,4.90
2018-02-20T04:46:51.526Z,4.97
2018-02-20T04:49:19.068Z,6.13
2018-02-20T04:51:46.731Z,5.23
2018-02-20T04:54:14.295Z,5.20
2018-02-20T04:56:41.845Z,5.93
2018-02-20T04:59:09.486Z,4.97
2018-02-20T05:01:37.030Z,4.50
2018-02-20T05:04:04.583Z,4.80
2018-02-20T05:06:32.318Z,4.47
2018-02-20T05:08:59.857Z,4.90
2018-02-20T05:11:27.388Z,5.03
2018-02-20T05:13:54.975Z,4.47
2018-02-20T05:16:22.513Z,4.43
2018-02-20T05:18:50.056Z,6.70
2018-02-20T05:21:17.633Z,10.33
2018-02-20T05:23:45.171Z,9.20
2018-02-20T05:26:12.722Z,10.07
2018-02-20T05:28:40.330Z,8.10
2018-02-20T05:31:07.874Z,5.67
2018-02-20T05:33:35.407Z,5.80
2018-02-20T05:36:03.966Z,7.60
2018-02-20T05:38:31.510Z,6.37
2018-02-20T05:40:59.090Z,5.57
2018-02-20T05:43:26.666Z,6.03
2018-02-20T05:45:54.226Z,11.37
2018-02-20T05:48:21.770Z,8.67
2018-02-20T05:50:49.332Z,6.30
2018-02-20T05:53:16.866Z,19.83
2018-02-20T05:55:44.408Z,10.77
2018-02-20T05:58:11.981Z,14.00
2018-02-20T06:00:39.546Z,14.53
2018-02-20T06:03:07.092Z,7.40
2018-02-20T06:05:34.724Z,5.97
2018-02-20T06:08:02.253Z,6.33
2018-02-20T06:10:29.808Z,7.00
2018-02-20T06:12:57.485Z,7.30
2018-02-20T06:15:25.017Z,5.93
2018-02-20T06:17:52.564Z,8.37
2018-02-20T06:20:20.155Z,8.03
2018-02-20T06:22:47.705Z,6.47
2018-02-20T06:25:15.251Z,7.60
2018-02-20T06:27:43.004Z,6.97
2018-02-20T06:30:10.546Z,6.87
2018-02-20T06:32:38.083Z,7.07
2018-02-20T06:35:05.654Z,8.77
2018-02-20T06:37:33.209Z,12.17
2018-02-20T06:40:00.762Z,9.87
2018-02-20T06:42:28.370Z,11.07
2018-02-20T06:44:55.910Z,9.93
2018-02-20T06:47:23.462Z,10.07
2018-02-20T06:49:51.052Z,7.80
2018-02-20T06:52:18.591Z,9.03
2018-02-20T06:54:46.136Z,8.43
2018-02-20T06:57:13.737Z,11.83
2018-02-20T06:59:41.283Z,8.97
2018-02-20T07:02:08.830Z,9.33
2018-02-20T07:04:36.559Z,9.57
2018-02-20T07:07:04.120Z,9.30
2018-02-20T07:09:31.668Z,8.80
2018-02-20T07:11:59.338Z,8.50
2018-02-20T07:14:26.890Z,7.33
2018-02-20T07:16:54.431Z,6.57
2018-02-20T07:19:22.001Z,7.87
2018-02-20T07:21:49.551Z,7.93
2018-02-20T07:24:17.089Z,6.90
2018-02-20T07:26:44.951Z,6.07
2018-02-20T07:29:12.486Z,6.30
2018-02-20T07:31:40.037Z,6.97
2018-02-20T07:34:07.639Z,7.33
2018-02-20T07:36:35.198Z,7.33
2018-02-20T07:39:02.778Z,6.30
2018-02-20T07:41:30.464Z,8.23
2018-02-20T07:43:58.059Z,6.70
2018-02-20T07:46:25.574Z,8.07
2018-02-20T07:48:53.167Z,9.97
2018-02-20T07:51:20.747Z,9.13
2018-02-20T07:53:48.299Z,19.27
2018-02-20T07:56:15.900Z,14.50
2018-02-20T07:58:43.447Z,9.43
2018-02-20T08:01:11.024Z,8.60
2018-02-20T08:03:38.623Z,8.70
2018-02-20T08:06:06.181Z,7.13
2018-02-20T08:08:33.743Z,8.33
2018-02-20T08:11:01.332Z,8.20
2018-02-20T08:13:28.887Z,7.30
2018-02-20T08:15:56.430Z,9.20
2018-02-20T08:18:24.113Z,8.20
2018-02-20T08:20:51.676Z,8.93
2018-02-20T08:23:19.227Z,7.07
2018-02-20T08:25:46.911Z,8.47
2018-02-20T08:28:14.463Z,7.80
2018-02-20T08:30:42.016Z,7.97
2018-02-20T08:33:09.603Z,7.63
2018-02-20T08:35:37.161Z,7.80
2018-02-20T08:38:04.758Z,7.23
2018-02-20T08:40:32.442Z,8.23
2018-02-20T08:42:59.988Z,8.30
2018-02-20T08:45:27.547Z,9.20
2018-02-20T08:47:55.126Z,8.33
2018-02-20T08:50:22.674Z,7.80
2018-02-20T08:52:50.235Z,7.67
2018-02-20T08:55:17.974Z,8.47
2018-02-20T08:57:45.523Z,8.83
2018-02-20T09:00:13.062Z,8.13
2018-02-20T09:02:40.637Z,8.70
2018-02-20T09:05:08.182Z,7.23
2018-02-20T09:07:35.728Z,7.60
2018-02-20T09:10:03.476Z,9.03
2018-02-20T09:12:31.030Z,8.97
2018-02-20T09:14:58.584Z,16.77
2018-02-20T09:17:26.139Z,13.00
2018-02-20T09:19:53.691Z,11.20
2018-02-20T09:22:21.437Z,8.30
2018-02-20T09:24:49.003Z,9.17
2018-02-20T09:27:16.546Z,10.03
2018-02-20T09:29:44.307Z,10.00
2018-02-20T09:32:11.872Z,9.40
2018-02-20T09:34:39.420Z,7.60
2018-02-20T09:37:06.988Z,7.50
2018-02-20T09:39:34.538Z,8.80
2018-02-20T09:42:02.075Z,9.73
2018-02-20T09:44:29.800Z,7.70
2018-02-20T09:46:57.373Z,7.67
2018-02-20T09:49:24.927Z,7.53
2018-02-20T09:51:52.513Z,8.03
2018-02-20T09:54:20.064Z,7.87
2018-02-20T09:56:47.598Z,7.77
2018-02-20T09:59:15.183Z,7.60
2018-02-20T10:01:42.737Z,7.77
2018-02-20T10:04:10.278Z,7.17
2018-02-20T10:06:38.139Z,7.30
2018-02-20T10:09:05.727Z,8.10
2018-02-20T10:14:10.518Z,7.07
2018-02-20T10:16:38.062Z,7.80
2018-02-20T10:19:05.598Z,9.40
2018-02-20T10:21:33.332Z,9.30
2018-02-20T10:24:00.890Z,10.10
2018-02-20T10:26:28.431Z,13.50
2018-02-20T10:28:56.159Z,15.27
2018-02-20T10:31:23.707Z,10.53
2018-02-20T10:33:51.267Z,9.97
2018-02-20T10:36:19.003Z,10.13
2018-02-20T10:38:46.561Z,8.67
2018-02-20T10:41:14.108Z,10.30
2018-02-20T10:43:41.683Z,13.23
2018-02-20T10:46:09.241Z,10.50
2018-02-20T10:48:36.790Z,10.33
2018-02-20T10:51:04.357Z,7.93
2018-02-20T10:53:31.906Z,8.90
2018-02-20T10:55:59.502Z,8.20
2018-02-20T10:58:27.067Z,8.23
2018-02-20T11:00:54.610Z,9.40
2018-02-20T11:03:22.156Z,8.37
2018-02-20T11:05:49.880Z,8.13
2018-02-20T11:08:17.436Z,7.63
2018-02-20T11:10:45.009Z,8.90
2018-02-20T11:13:12.914Z,16.23
2018-02-20T11:15:40.458Z,12.03
2018-02-20T11:18:08.010Z,9.53
2018-02-20T11:20:35.758Z,13.53
2018-02-20T11:23:03.303Z,14.47
2018-02-20T11:25:30.854Z,12.00
2018-02-20T11:27:58.598Z,9.13
2018-02-20T11:30:26.135Z,9.77
2018-02-20T11:32:53.681Z,8.17
2018-02-20T11:35:21.256Z,6.60
2018-02-20T11:37:48.786Z,6.50
2018-02-20T11:40:16.347Z,7.17
2018-02-20T11:42:43.907Z,7.27
2018-02-20T11:45:11.447Z,6.03
2018-02-20T11:47:38.998Z,6.20
2018-02-20T11:50:06.566Z,6.40
2018-02-20T11:52:34.106Z,7.63
2018-02-20T11:55:01.650Z,7.03
2018-02-20T11:57:29.369Z,5.87
2018-02-20T11:59:56.930Z,7.67
2018-02-20T12:02:24.486Z,6.93
2018-02-20T12:04:52.070Z,6.90
2018-02-20T12:07:19.628Z,7.33
2018-02-20T12:09:47.174Z,7.47
2018-02-20T12:12:14.738Z,7.43
2018-02-20T12:14:42.287Z,8.97
2018-02-20T12:17:09.838Z,14.27
2018-02-20T12:19:37.526Z,18.90
2018-02-20T12:22:05.085Z,23.17
2018-02-20T12:24:32.634Z,13.80
2018-02-20T12:27:01.107Z,8.33
2018-02-20T12:29:28.666Z,7.83
2018-02-20T12:31:56.214Z,7.50
2018-02-20T12:34:23.803Z,7.73
2018-02-20T12:36:51.343Z,6.80
2018-02-20T12:39:18.887Z,6.87
2018-02-20T12:41:46.576Z,6.70
2018-02-20T12:44:14.110Z,7.17
2018-02-20T12:46:41.660Z,6.60
2018-02-20T12:49:09.389Z,6.70
2018-02-20T12:51:37.786Z,7.37
2018-02-20T12:54:05.350Z,7.93
2018-02-20T12:56:32.933Z,13.53
2018-02-20T12:59:01.247Z,14.33
2018-02-20T13:01:28.800Z,6.97
2018-02-20T13:03:56.396Z,8.43
2018-02-20T13:06:23.954Z,8.73
2018-02-20T13:08:51.538Z,9.53
2018-02-20T13:11:19.228Z,9.33
2018-02-20T13:13:46.775Z,11.03
2018-02-20T13:16:14.334Z,9.60
2018-02-20T13:18:41.922Z,7.73
2018-02-20T13:21:09.496Z,12.47
2018-02-20T13:23:37.042Z,8.40
2018-02-20T13:26:04.632Z,24.17
2018-02-20T13:28:32.171Z,8.87
2018-02-20T13:30:59.719Z,11.30
2018-02-20T13:33:27.467Z,10.40
2018-02-20T13:35:55.023Z,9.97
2018-02-20T13:38:22.568Z,16.27
2018-02-20T13:40:50.171Z,8.47
2018-02-20T13:43:17.715Z,10.03
2018-02-20T13:45:45.271Z,16.57
2018-02-20T13:48:13.156Z,14.03
2018-02-20T13:50:40.707Z,16.57
2018-02-20T13:53:08.267Z,19.40
2018-02-20T13:55:36.025Z,24.27
2018-02-20T13:58:03.569Z,14.40
2018-02-20T14:00:31.114Z,25.03
2018-02-20T14:02:58.746Z,19.17
2018-02-20T14:05:26.325Z,11.27
2018-02-20T14:07:53.866Z,15.17
2018-02-20T14:10:21.465Z,22.20
2018-02-20T14:12:49.047Z,17.23
2018-02-20T14:15:16.612Z,18.80
2018-02-20T14:17:44.159Z,13.73
2018-02-20T14:20:11.783Z,14.30
2018-02-20T14:22:39.341Z,12.53
2018-02-20T14:25:06.887Z,12.43
2018-02-20T14:27:34.441Z,12.07
2018-02-20T14:30:02.215Z,10.67
2018-02-20T14:32:29.769Z,12.67
2018-02-20T14:34:57.385Z,12.63
2018-02-20T14:37:24.998Z,11.47
2018-02-20T14:39:52.555Z,12.40
2018-02-20T14:42:20.094Z,11.17
2018-02-20T14:44:47.792Z,16.47
2018-02-20T14:47:15.361Z,15.97
2018-02-20T14:49:42.922Z,13.97
2018-02-20T14:52:10.614Z,11.40
2018-02-20T14:54:38.182Z,15.53
2018-02-20T14:57:05.721Z,12.77
2018-02-20T14:59:33.430Z,20.73
2018-02-20T15:02:00.980Z,15.33
2018-02-20T15:04:28.538Z,14.30
2018-02-20T15:06:56.109Z,11.67
2018-02-20T15:09:23.661Z,14.87
2018-02-20T15:11:51.224Z,13.63
2018-02-20T15:14:19.103Z,13.20
2018-02-20T15:16:46.650Z,16.50
2018-02-20T15:19:14.210Z,14.17
2018-02-20T15:21:41.795Z,13.60
2018-02-20T15:24:09.350Z,15.90
2018-02-20T15:26:36.914Z,12.83
2018-02-20T15:29:04.501Z,15.70
2018-02-20T15:31:32.068Z,17.77
2018-02-20T15:33:59.612Z,13.83
2018-02-20T15:36:27.492Z,13.50
2018-02-20T15:38:55.046Z,12.17
2018-02-20T15:41:22.599Z,12.60
2018-02-20T15:43:50.180Z,12.67
2018-02-20T15:46:17.726Z,11.57
2018-02-20T15:48:45.278Z,13.07
2018-02-20T15:51:12.902Z,14.37
2018-02-20T15:53:40.461Z,13.27
2018-02-20T15:56:08.022Z,17.67
2018-02-20T15:58:35.618Z,18.97
2018-02-20T16:01:03.177Z,19.57
2018-02-20T16:03:30.749Z,16.03
2018-02-20T16:05:58.479Z,13.30
2018-02-20T16:08:26.022Z,14.53
2018-02-20T16:10:53.579Z,20.03
2018-02-20T16:13:21.203Z,18.37
2018-02-20T16:16:05.406Z,16.50
2018-02-20T16:18:33.291Z,14.47
2018-02-20T16:21:00.836Z,15.10
2018-02-20T16:23:28.442Z,17.23
2018-02-20T16:25:56.098Z,18.33
2018-02-20T16:28:23.702Z,21.53
2018-02-20T16:30:51.251Z,30.50
2018-02-20T16:33:18.954Z,17.03
2018-02-20T16:35:46.514Z,13.20
2018-02-20T16:38:14.057Z,12.97
2018-02-20T16:40:41.793Z,13.40
2018-02-20T16:43:09.366Z,10.27
2018-02-20T16:45:36.936Z,12.57
2018-02-20T16:48:04.837Z,12.80
2018-02-20T16:50:32.390Z,11.90
2018-02-20T16:52:59.982Z,12.43
2018-02-20T16:55:27.591Z,10.77
2018-02-20T16:57:55.175Z,11.27
2018-02-20T17:00:22.731Z,12.90
2018-02-20T17:02:50.510Z,10.53
2018-02-20T17:05:19.038Z,9.77
2018-02-20T17:07:46.637Z,9.23
2018-02-20T17:10:14.435Z,8.47
2018-02-20T17:12:42.043Z,9.67
2018-02-20T17:15:09.696Z,11.33
2018-02-20T17:17:37.280Z,9.73
2018-02-20T17:20:04.839Z,9.50
2018-02-20T17:22:32.699Z,10.00
2018-02-20T17:25:00.301Z,9.17
2018-02-20T17:27:27.859Z,9.13
2018-02-20T17:29:55.823Z,8.93
2018-02-20T17:32:23.510Z,8.87
2018-02-20T17:34:51.451Z,9.10
2018-02-20T17:37:19.517Z,9.63
2018-02-20T17:39:47.095Z,9.40
2018-02-20T17:42:14.707Z,9.13
2018-02-20T17:44:42.414Z,9.63
2018-02-20T17:47:10.088Z,9.80
2018-02-20T17:49:37.890Z,12.07
2018-02-20T17:52:05.726Z,16.03
2018-02-20T17:54:33.289Z,10.80
2018-02-20T17:57:00.897Z,10.30
2018-02-20T17:59:28.698Z,10.00
2018-02-20T18:01:56.299Z,10.23
2018-02-20T18:04:23.895Z,9.67
2018-02-20T18:06:51.799Z,10.93
2018-02-20T18:09:19.382Z,11.27
2018-02-20T18:11:46.977Z,11.67
2018-02-20T18:14:14.779Z,9.53
2018-02-20T18:16:42.353Z,10.87
2018-02-20T18:19:09.910Z,10.77
2018-02-20T18:21:37.733Z,9.23
2018-02-20T18:24:05.304Z,9.87
2018-02-20T18:26:32.885Z,9.90
2018-02-20T18:29:00.820Z,8.70
2018-02-20T18:31:28.439Z,11.70
2018-02-20T18:33:56.014Z,10.73
2018-02-20T18:36:23.807Z,10.07
2018-02-20T18:38:51.380Z,10.70
2018-02-20T18:41:18.971Z,10.50
2018-02-20T18:43:46.729Z,11.47
2018-02-20T18:46:14.298Z,9.03
2018-02-20T18:48:41.917Z,9.43
2018-02-20T18:51:09.528Z,9.47
2018-02-20T18:53:37.089Z,7.97
2018-02-20T18:56:04.682Z,8.80
2018-02-20T18:58:32.424Z,8.07
2018-02-20T19:00:59.987Z,7.60
2018-02-20T19:03:27.575Z,7.80
2018-02-20T19:05:55.262Z,8.80
2018-02-20T19:08:22.821Z,8.27
2018-02-20T19:10:50.389Z,8.13
2018-02-20T19:13:18.148Z,9.50
2018-02-20T19:15:45.731Z,8.90
2018-02-20T19:18:13.328Z,7.47
2018-02-20T19:20:41.110Z,8.77
2018-02-20T19:23:08.692Z,7.67
2018-02-20T19:25:36.289Z,6.37
2018-02-20T19:28:04.108Z,7.47
2018-02-20T19:30:31.660Z,7.17
2018-02-20T19:32:59.224Z,7.13
2018-02-20T19:35:26.817Z,5.77
2018-02-20T19:37:54.370Z,6.17
2018-02-20T19:40:21.964Z,6.60
2018-02-20T19:42:49.742Z,5.27
2018-02-20T19:45:17.313Z,5.47
2018-02-20T19:47:44.944Z,5.53
2018-02-20T19:50:12.555Z,6.17
2018-02-20T19:52:40.102Z,7.53
2018-02-20T19:55:07.661Z,5.13
2018-02-20T19:57:35.681Z,6.07
2018-02-20T20:00:03.320Z,6.10
2018-02-20T20:02:30.891Z,7.30
2018-02-20T20:04:58.481Z,7.63
2018-02-20T20:07:26.073Z,7.53
2018-02-20T20:09:53.651Z,5.70
2018-02-20T20:12:21.270Z,6.10
2018-02-20T20:14:48.874Z,5.90
2018-02-20T20:17:16.455Z,5.97
2018-02-20T20:19:44.159Z,6.77
2018-02-20T20:22:11.725Z,6.47
2018-02-20T20:24:39.350Z,6.13
2018-02-20T20:27:06.984Z,6.60
2018-02-20T20:29:34.541Z,6.00
2018-02-20T20:32:02.136Z,6.27
2018-02-20T20:34:29.870Z,5.33
2018-02-20T20:36:57.439Z,5.43
2018-02-20T20:39:24.998Z,5.60
2018-02-20T20:41:52.762Z,5.33
2018-02-20T20:44:20.344Z,4.60
2018-02-20T20:46:47.895Z,4.83
2018-02-20T20:49:15.625Z,4.47
2018-02-20T20:51:43.188Z,5.33
2018-02-20T20:54:10.827Z,5.53
2018-02-20T20:56:39.485Z,4.43
2018-02-20T20:59:07.172Z,5.43
2018-02-20T21:01:34.788Z,4.70
2018-02-20T21:04:02.535Z,5.03
2018-02-20T21:06:30.200Z,4.83
2018-02-20T21:08:57.797Z,4.47
2018-02-20T21:11:25.509Z,4.33
2018-02-20T21:13:53.109Z,4.23
2018-02-20T21:16:20.653Z,4.10
2018-02-20T21:18:48.368Z,5.67
2018-02-20T21:21:15.970Z,4.23
2018-02-20T21:23:43.518Z,6.60
2018-02-20T21:26:11.177Z,4.50
2018-02-20T21:28:38.742Z,4.77
2018-02-20T21:31:06.329Z,4.43
2018-02-20T21:33:34.022Z,4.43
2018-02-20T21:36:01.578Z,4.97
2018-02-20T21:38:29.156Z,5.73
2018-02-20T21:40:57.049Z,5.30
2018-02-20T21:43:24.645Z,5.77
2018-02-20T21:45:52.222Z,5.50
2018-02-20T21:48:19.843Z,6.73
2018-02-20T21:50:47.466Z,9.20
2018-02-20T21:53:15.043Z,9.57
2018-02-20T21:55:42.827Z,9.63
2018-02-20T21:58:10.391Z,10.40
2018-02-20T22:00:38.032Z,12.33
2018-02-20T22:03:05.625Z,11.57
2018-02-20T22:05:33.208Z,12.33
2018-02-20T22:08:00.801Z,13.13
2018-02-20T22:10:28.404Z,12.77
2018-02-20T22:12:56.010Z,14.33
2018-02-20T22:15:23.562Z,13.77
2018-02-20T22:17:51.119Z,14.07
2018-02-20T22:20:18.680Z,14.00
2018-02-20T22:22:46.379Z,15.73
2018-02-20T22:25:13.921Z,15.57
2018-02-20T22:27:41.473Z,15.43
2018-02-20T22:30:09.048Z,14.73
2018-02-20T22:32:36.612Z,14.10
2018-02-20T22:35:04.169Z,13.47
2018-02-20T22:37:32.036Z,13.47
2018-02-20T22:39:59.579Z,12.03
2018-02-20T22:42:27.123Z,16.40
2018-02-20T22:44:54.695Z,11.03
2018-02-20T22:47:22.246Z,11.10
2018-02-20T22:49:49.811Z,11.17
2018-02-20T22:52:17.380Z,10.67
2018-02-20T22:54:44.965Z,10.83
2018-02-20T22:57:12.519Z,8.17
2018-02-20T22:59:40.119Z,10.03
2018-02-20T23:02:07.674Z,9.47
2018-02-20T23:04:35.229Z,11.90
2018-02-20T23:07:02.904Z,13.83
2018-02-20T23:09:30.460Z,8.90
2018-02-20T23:11:58.562Z,8.50
2018-02-20T23:14:26.430Z,8.53
2018-02-20T23:16:53.998Z,9.80
2018-02-20T23:19:21.534Z,8.37
2018-02-20T23:21:49.122Z,6.10
2018-02-20T23:24:16.667Z,6.67
2018-02-20T23:26:44.214Z,6.27
2018-02-20T23:29:11.792Z,6.57
2018-02-20T23:31:39.338Z,7.00
2018-02-20T23:34:06.884Z,7.73
2018-02-20T23:36:34.464Z,7.43
2018-02-20T23:39:02.006Z,9.03
2018-02-20T23:41:29.558Z,8.30
2018-02-20T23:43:57.138Z,9.40
2018-02-20T23:46:24.680Z,8.23
2018-02-20T23:48:52.218Z,9.37
2018-02-20T23:51:25.651Z,9.30
2018-02-20T23:53:53.242Z,8.73
2018-02-20T23:56:20.788Z,10.03
2018-02-20T23:58:48.398Z,9.60
